Time;durP1;ratioP1;P1;durP2;ratioP2;P2;SDS_P1;SDS_P2;PMS_P1;PMS_P2;Temp;Humidity;BMP_temperature;BMP_pressure;BME280_temperature;BME280_humidity;BME280_pressure;Samples;Min_cycle;Max_cycle;Signal;HPM_P1;HPM_P2
2022/03/23 00:02:01;;;;;;;6.70;6.10;;;7.40;83.60;;;;;;5026688;28;20223;-77
2022/03/23 00:04:29;;;;;;;7.28;6.57;;;7.30;83.50;;;;;;5026901;28;20242;-77
2022/03/23 00:06:56;;;;;;;7.10;6.40;;;7.30;83.30;;;;;;5028740;28;20225;-77
2022/03/23 00:09:23;;;;;;;6.63;6.03;;;7.30;83.80;;;;;;5023837;28;20298;-77
2022/03/23 00:11:50;;;;;;;6.97;6.38;;;7.30;83.70;;;;;;5025827;28;20199;-77
2022/03/23 00:14:17;;;;;;;7.57;6.88;;;7.30;83.80;;;;;;5024092;28;20219;-77
2022/03/23 00:16:45;;;;;;;8.15;6.57;;;7.20;83.90;;;;;;5025675;28;20555;-77
2022/03/23 00:19:13;;;;;;;8.07;7.28;;;7.20;83.90;;;;;;5022598;28;20239;-77
2022/03/23 00:21:40;;;;;;;8.13;7.32;;;7.10;83.90;;;;;;5021930;28;20544;-77
2022/03/23 00:24:07;;;;;;;7.50;6.70;;;7.00;84.40;;;;;;5029163;28;20281;-77
2022/03/23 00:26:34;;;;;;;8.80;7.07;;;7.00;84.90;;;;;;5026257;28;20226;-78
2022/03/23 00:29:03;;;;;;;6.97;6.38;;;7.00;84.70;;;;;;5033059;28;20215;-77
2022/03/23 00:31:30;;;;;;;7.18;6.47;;;7.00;84.60;;;;;;5030254;28;20244;-76
2022/03/23 00:33:58;;;;;;;7.55;6.85;;;7.00;84.10;;;;;;5029538;28;20223;-76
2022/03/23 00:36:26;;;;;;;6.65;6.10;;;7.00;84.30;;;;;;5036355;28;20191;-77
2022/03/23 00:38:53;;;;;;;7.20;6.60;;;7.00;84.70;;;;;;5034388;28;20223;-77
2022/03/23 00:41:21;;;;;;;8.07;7.35;;;7.00;84.70;;;;;;5028557;28;20196;-77
2022/03/23 00:43:48;;;;;;;7.32;6.72;;;7.00;84.50;;;;;;5030577;28;22116;-77
2022/03/23 00:46:15;;;;;;;7.43;6.72;;;6.90;84.30;;;;;;5030472;28;20620;-76
2022/03/23 00:48:42;;;;;;;7.55;6.85;;;6.90;84.50;;;;;;5031879;28;20306;-76
2022/03/23 00:51:09;;;;;;;7.40;6.80;;;6.80;84.50;;;;;;5031907;28;20203;-77
2022/03/23 00:53:38;;;;;;;7.57;6.88;;;6.80;84.80;;;;;;5030154;28;20292;-77
2022/03/23 00:56:06;;;;;;;7.65;6.95;;;6.80;84.90;;;;;;5026576;28;20716;-78
2022/03/23 00:58:33;;;;;;;8.02;7.10;;;6.80;85.00;;;;;;5031204;28;20215;-77
2022/03/23 01:01:00;;;;;;;7.60;6.90;;;6.80;84.90;;;;;;5029533;28;20724;-77
2022/03/23 01:03:27;;;;;;;8.00;7.40;;;6.70;84.80;;;;;;5029751;28;20311;-77
2022/03/23 01:05:55;;;;;;;7.40;6.68;;;6.70;84.70;;;;;;5027667;28;20597;-76
2022/03/23 01:08:22;;;;;;;7.60;6.90;;;6.70;85.20;;;;;;5029866;28;20423;-77
2022/03/23 01:10:50;;;;;;;8.05;7.00;;;6.70;85.40;;;;;;5029264;28;20222;-77
2022/03/23 01:13:18;;;;;;;7.05;6.40;;;6.70;85.80;;;;;;5028641;28;20701;-77
2022/03/23 01:15:45;;;;;;;6.57;5.97;;;6.70;86.00;;;;;;5029434;28;20219;-77
2022/03/23 01:18:12;;;;;;;7.15;6.55;;;6.70;85.80;;;;;;5034615;28;20219;-77
2022/03/23 01:20:39;;;;;;;7.15;6.55;;;6.70;85.70;;;;;;5030173;28;20211;-77
2022/03/23 01:23:06;;;;;;;7.55;6.85;;;6.70;85.60;;;;;;5028935;28;20701;-77
2022/03/23 01:25:33;;;;;;;7.30;6.60;;;6.60;85.20;;;;;;5030987;28;20284;-77
2022/03/23 01:28:02;;;;;;;7.45;6.70;;;6.60;85.20;;;;;;5028975;28;20200;-77
2022/03/23 01:30:30;;;;;;;7.45;6.75;;;6.50;86.20;;;;;;5031026;28;20217;-76
2022/03/23 01:32:57;;;;;;;7.55;6.85;;;6.50;85.50;;;;;;5026733;28;20836;-77
2022/03/23 01:35:24;;;;;;;7.63;6.90;;;6.50;85.70;;;;;;5027385;28;20216;-77
2022/03/23 01:37:51;;;;;;;7.30;6.60;;;6.40;86.10;;;;;;5026870;28;20231;-77
2022/03/23 01:40:18;;;;;;;6.75;6.15;;;6.40;86.40;;;;;;5027954;28;20225;-77
2022/03/23 01:42:45;;;;;;;6.90;6.30;;;6.40;86.70;;;;;;5025216;28;20233;-77
2022/03/23 01:45:14;;;;;;;8.05;7.30;;;6.40;86.60;;;;;;5023049;28;20231;-77
2022/03/23 01:47:42;;;;;;;6.88;6.28;;;6.40;86.60;;;;;;5027071;28;20246;-77
2022/03/23 01:50:10;;;;;;;7.07;6.47;;;6.40;86.70;;;;;;5026244;28;20730;-77
2022/03/23 01:52:38;;;;;;;6.60;6.00;;;6.40;86.80;;;;;;5025995;28;20779;-77
2022/03/23 01:55:09;;;;;;;6.30;5.70;;;6.40;86.90;;;;;;5028194;28;20226;-78
2022/03/23 01:57:39;;;;;;;6.70;6.10;;;6.30;86.70;;;;;;5025601;28;20866;-77
2022/03/23 02:00:08;;;;;;;6.80;6.15;;;6.30;86.90;;;;;;5027892;28;20234;-77
2022/03/23 02:02:36;;;;;;;7.00;6.40;;;6.20;86.90;;;;;;5028916;28;20223;-77
2022/03/23 02:05:03;;;;;;;7.63;6.93;;;6.20;87.20;;;;;;5029380;28;20226;-77
2022/03/23 02:07:31;;;;;;;7.03;6.43;;;6.20;87.20;;;;;;5026501;28;20700;-77
2022/03/23 02:09:59;;;;;;;6.38;5.82;;;6.10;87.30;;;;;;5024774;28;20314;-77
2022/03/23 02:12:30;;;;;;;7.20;6.50;;;6.00;87.30;;;;;;5030693;28;20195;-77
2022/03/23 02:14:58;;;;;;;6.95;6.38;;;6.10;87.50;;;;;;5029228;28;20247;-77
2022/03/23 02:17:25;;;;;;;7.68;6.97;;;6.10;87.60;;;;;;5029149;28;20203;-77
2022/03/23 02:19:54;;;;;;;11.15;6.95;;;6.00;87.60;;;;;;5027028;28;20223;-77
2022/03/23 02:22:22;;;;;;;7.05;6.43;;;6.00;87.80;;;;;;5034183;28;20195;-77
2022/03/23 02:24:49;;;;;;;6.57;5.97;;;6.00;88.00;;;;;;5023310;28;21667;-77
2022/03/23 02:27:18;;;;;;;7.43;6.72;;;6.00;88.20;;;;;;5028462;28;20269;-77
2022/03/23 02:29:45;;;;;;;7.38;6.68;;;5.90;88.10;;;;;;5029891;28;20226;-78
2022/03/23 02:32:13;;;;;;;7.25;6.65;;;5.90;88.40;;;;;;5028101;28;20199;-77
2022/03/23 02:34:40;;;;;;;7.13;6.53;;;5.90;88.40;;;;;;5027947;28;20302;-77
2022/03/23 02:37:08;;;;;;;7.07;6.38;;;5.90;88.30;;;;;;5027202;28;20208;-77
2022/03/23 02:39:37;;;;;;;6.00;5.50;;;5.90;87.90;;;;;;5025734;28;20227;-78
2022/03/23 02:42:05;;;;;;;7.60;6.90;;;5.90;87.90;;;;;;5026263;28;20200;-77
2022/03/23 02:44:32;;;;;;;6.35;5.85;;;5.90;88.10;;;;;;5052648;22;20355;-74
2022/03/23 02:46:59;;;;;;;7.20;6.53;;;5.90;88.20;;;;;;5060380;28;20458;-77
2022/03/23 02:49:26;;;;;;;6.75;6.00;;;5.80;88.40;;;;;;5061828;28;20221;-76
2022/03/23 02:51:53;;;;;;;7.00;6.35;;;5.80;88.40;;;;;;5055458;28;20195;-75
2022/03/23 03:02:47;;;;;;;6.65;6.05;;;5.80;88.80;;;;;;5048843;28;20239;-75
2022/03/23 03:05:14;;;;;;;7.60;6.88;;;5.80;88.80;;;;;;5051266;28;20222;-75
2022/03/23 03:10:27;;;;;;;7.03;6.38;;;5.70;89.10;;;;;;5046245;28;20247;-76
2022/03/23 03:12:56;;;;;;;6.20;5.70;;;5.70;89.50;;;;;;5047061;28;20652;-78
2022/03/23 03:15:24;;;;;;;7.60;6.80;;;5.60;89.20;;;;;;5051689;28;20306;-80
2022/03/23 03:17:51;;;;;;;5.65;4.95;;;5.60;89.90;;;;;;5046066;28;20710;-79
2022/03/23 03:20:18;;;;;;;6.38;5.82;;;5.50;89.80;;;;;;5042160;28;20243;-81
2022/03/23 03:22:46;;;;;;;6.50;5.90;;;5.40;89.80;;;;;;5042653;28;20203;-75
2022/03/23 03:25:15;;;;;;;6.57;5.97;;;5.40;89.90;;;;;;5039987;28;20304;-75
2022/03/23 03:27:43;;;;;;;6.25;5.75;;;5.40;90.00;;;;;;5041986;28;20672;-75
2022/03/23 03:30:14;;;;;;;6.70;6.15;;;5.40;90.10;;;;;;5041486;28;20427;-77
2022/03/23 03:32:42;;;;;;;6.38;5.78;;;5.40;90.10;;;;;;5043318;28;20199;-78
2022/03/23 03:35:11;;;;;;;6.85;6.25;;;5.50;90.20;;;;;;5047855;28;20630;-78
2022/03/23 03:37:39;;;;;;;6.65;6.07;;;5.40;90.10;;;;;;5052062;28;20204;-76
2022/03/23 03:40:07;;;;;;;5.95;5.45;;;5.40;90.10;;;;;;5043079;28;20234;-76
2022/03/23 03:42:36;;;;;;;6.10;5.60;;;5.40;90.00;;;;;;5044804;28;20195;-75
2022/03/23 03:45:05;;;;;;;6.28;5.68;;;5.30;90.30;;;;;;5043514;28;20685;-77
2022/03/23 03:47:33;;;;;;;6.85;6.25;;;5.30;89.90;;;;;;5050784;28;20194;-76
2022/03/23 03:50:01;;;;;;;5.85;5.35;;;5.30;90.20;;;;;;5049981;28;20648;-77
2022/03/23 03:52:28;;;;;;;6.55;6.05;;;5.30;90.40;;;;;;5050063;28;20239;-76
2022/03/23 03:54:55;;;;;;;6.65;6.05;;;5.30;90.20;;;;;;5045344;28;20304;-78
2022/03/23 03:57:22;;;;;;;6.78;6.18;;;5.30;90.00;;;;;;5055021;28;20656;-75
2022/03/23 03:59:49;;;;;;;6.68;6.07;;;5.30;90.00;;;;;;5049211;28;20719;-75
2022/03/23 04:02:17;;;;;;;6.75;6.05;;;5.30;89.80;;;;;;5046842;28;20194;-77
2022/03/23 04:04:45;;;;;;;6.30;5.80;;;5.40;89.80;;;;;;5050893;28;20218;-76
2022/03/23 04:07:12;;;;;;;6.35;5.85;;;5.40;89.80;;;;;;5053403;28;20199;-79
2022/03/23 04:09:39;;;;;;;6.25;5.72;;;5.30;89.90;;;;;;5062898;28;20264;-81
2022/03/23 04:12:08;;;;;;;6.32;5.82;;;5.30;90.10;;;;;;5049350;28;20592;-79
2022/03/23 04:14:35;;;;;;;6.18;5.68;;;5.30;90.20;;;;;;5060584;28;20697;-78
2022/03/23 04:17:03;;;;;;;5.90;5.43;;;5.20;90.40;;;;;;5052211;28;20203;-81
2022/03/23 04:19:30;;;;;;;6.55;5.95;;;5.20;90.40;;;;;;5049213;28;20210;-80
2022/03/23 04:21:58;;;;;;;6.15;5.55;;;5.10;90.50;;;;;;5052404;28;20579;-80
2022/03/23 04:24:25;;;;;;;6.22;5.63;;;5.10;90.40;;;;;;5052738;28;20221;-80
2022/03/23 04:26:52;;;;;;;5.80;5.30;;;5.10;90.40;;;;;;5047929;28;20658;-76
2022/03/23 04:29:19;;;;;;;6.30;5.70;;;5.10;90.50;;;;;;5055409;28;20244;-78
2022/03/23 04:31:46;;;;;;;6.32;5.82;;;5.10;90.90;;;;;;5049255;28;20195;-76
2022/03/23 04:34:13;;;;;;;6.25;5.65;;;5.00;90.50;;;;;;5045198;28;20751;-77
2022/03/23 04:36:40;;;;;;;6.32;5.72;;;5.00;90.70;;;;;;5053920;28;20222;-77
2022/03/23 04:39:08;;;;;;;6.32;5.72;;;4.90;90.70;;;;;;5045002;28;20926;-75
2022/03/23 04:41:35;;;;;;;6.20;5.60;;;5.00;90.90;;;;;;5052198;28;20210;-75
2022/03/23 04:44:02;;;;;;;5.97;5.45;;;5.00;91.00;;;;;;5047181;28;20292;-74
2022/03/23 04:46:29;;;;;;;6.47;5.97;;;5.00;91.00;;;;;;5046936;28;20224;-77
2022/03/23 04:48:57;;;;;;;6.13;5.63;;;5.00;91.10;;;;;;5051381;28;20199;-78
2022/03/23 04:51:24;;;;;;;6.88;6.15;;;5.00;91.00;;;;;;5051574;28;20701;-74
2022/03/23 04:53:52;;;;;;;5.80;5.30;;;5.00;91.20;;;;;;5051691;28;20256;-76
2022/03/23 04:56:20;;;;;;;5.85;5.35;;;5.10;91.10;;;;;;5041174;28;20298;-77
2022/03/23 04:58:47;;;;;;;6.88;6.28;;;5.10;91.00;;;;;;5046375;28;20284;-78
2022/03/23 05:01:14;;;;;;;5.80;5.30;;;5.00;91.10;;;;;;5045556;28;20227;-79
2022/03/23 05:03:41;;;;;;;6.30;5.80;;;5.00;91.00;;;;;;5055694;28;20207;-75
2022/03/23 05:06:08;;;;;;;6.15;5.65;;;5.00;91.10;;;;;;5042959;28;20223;-77
2022/03/23 05:08:36;;;;;;;6.97;6.38;;;5.00;91.10;;;;;;5053404;28;20198;-75
2022/03/23 05:11:03;;;;;;;6.47;5.82;;;5.00;90.90;;;;;;5052141;28;20222;-79
2022/03/23 05:13:33;;;;;;;7.53;6.80;;;5.00;90.90;;;;;;5047627;28;20308;-82
2022/03/23 05:16:00;;;;;;;6.75;6.15;;;5.00;90.90;;;;;;5048844;28;20226;-75
2022/03/23 05:18:28;;;;;;;7.05;6.45;;;5.00;91.00;;;;;;5052506;28;20210;-75
2022/03/23 05:20:55;;;;;;;6.50;6.00;;;4.90;91.00;;;;;;5051859;28;20218;-74
2022/03/23 05:23:22;;;;;;;6.85;6.25;;;4.90;91.10;;;;;;5055138;28;20689;-76
2022/03/23 05:25:49;;;;;;;5.95;5.50;;;4.90;91.20;;;;;;5056441;28;20267;-77
2022/03/23 05:28:16;;;;;;;6.43;5.82;;;4.90;91.20;;;;;;5054633;28;20465;-78
2022/03/23 05:30:44;;;;;;;6.55;5.95;;;4.90;91.20;;;;;;5047148;28;20218;-75
2022/03/23 05:33:12;;;;;;;6.65;6.05;;;4.90;91.20;;;;;;5053320;28;20205;-76
2022/03/23 05:35:39;;;;;;;6.20;5.70;;;4.80;91.40;;;;;;5048494;28;20222;-76
2022/03/23 05:38:06;;;;;;;6.65;6.15;;;4.80;91.50;;;;;;5051264;28;20210;-77
2022/03/23 05:40:34;;;;;;;6.38;5.60;;;4.70;91.70;;;;;;5043281;28;20226;-75
2022/03/23 05:43:01;;;;;;;6.30;5.78;;;4.70;91.80;;;;;;5051163;28;20214;-74
2022/03/23 05:45:28;;;;;;;6.45;5.57;;;4.70;91.80;;;;;;5045116;28;20230;-76
2022/03/23 05:47:56;;;;;;;6.90;6.30;;;4.70;91.70;;;;;;5043868;28;20203;-79
2022/03/23 05:50:24;;;;;;;6.50;5.93;;;4.80;92.00;;;;;;5048208;28;20222;-76
2022/03/23 05:52:51;;;;;;;5.78;5.30;;;4.80;92.10;;;;;;5061576;28;20571;-77
2022/03/23 05:55:18;;;;;;;6.53;5.93;;;4.80;91.80;;;;;;5046164;28;20227;-75
2022/03/23 05:57:45;;;;;;;6.28;5.78;;;4.80;91.50;;;;;;5051218;28;20199;-77
2022/03/23 06:00:13;;;;;;;6.32;5.57;;;5.10;91.40;;;;;;5048428;28;20231;-77
2022/03/23 06:02:40;;;;;;;6.13;5.63;;;5.60;91.30;;;;;;5050666;28;20213;-78
2022/03/23 06:05:10;;;;;;;6.40;5.80;;;6.10;91.00;;;;;;5061662;28;20689;-73
2022/03/23 06:07:37;;;;;;;6.18;5.68;;;6.60;90.50;;;;;;5052285;28;20280;-75
2022/03/23 06:10:07;;;;;;;6.43;5.93;;;7.10;90.00;;;;;;5045497;28;20235;-77
2022/03/23 06:12:34;;;;;;;6.50;5.90;;;7.50;88.90;;;;;;5050457;28;20206;-75
2022/03/23 06:15:01;;;;;;;6.32;5.72;;;7.90;88.40;;;;;;5052604;28;20226;-75
2022/03/23 06:17:28;;;;;;;7.00;6.38;;;8.20;87.40;;;;;;5052494;28;20206;-76
2022/03/23 06:19:55;;;;;;;6.55;5.97;;;8.40;87.40;;;;;;5054881;28;20218;-80
2022/03/23 06:22:24;;;;;;;7.22;6.28;;;8.80;87.20;;;;;;5046180;28;20295;-75
2022/03/23 06:24:51;;;;;;;6.30;5.70;;;9.20;86.60;;;;;;5047901;28;20237;-75
2022/03/23 06:27:18;;;;;;;8.07;6.68;;;9.50;85.00;;;;;;5052291;28;20226;-76
2022/03/23 06:29:45;;;;;;;6.80;6.10;;;9.80;84.20;;;;;;5055347;28;20587;-75
2022/03/23 06:32:12;;;;;;;6.97;6.18;;;10.00;84.00;;;;;;5047998;28;20597;-78
2022/03/23 06:34:39;;;;;;;7.25;6.55;;;10.30;83.70;;;;;;5049823;28;20225;-77
2022/03/23 06:37:08;;;;;;;6.43;5.82;;;10.50;83.00;;;;;;5055461;28;20222;-77
2022/03/23 06:39:36;;;;;;;6.93;6.32;;;10.60;83.10;;;;;;5049010;28;20195;-78
2022/03/23 06:42:04;;;;;;;8.57;6.55;;;10.70;83.20;;;;;;5055125;28;20223;-80
2022/03/23 06:44:31;;;;;;;7.35;6.65;;;10.90;83.30;;;;;;5053287;28;20226;-75
2022/03/23 06:46:58;;;;;;;7.00;6.25;;;11.00;83.90;;;;;;5050589;28;20227;-78
2022/03/23 06:49:25;;;;;;;6.97;6.32;;;11.30;84.20;;;;;;5049207;28;20581;-79
2022/03/23 06:51:52;;;;;;;8.45;7.10;;;11.60;84.40;;;;;;5055316;28;20704;-77
2022/03/23 06:54:19;;;;;;;8.30;7.50;;;11.90;83.30;;;;;;5052249;28;20480;-78
2022/03/23 06:56:51;;;;;;;7.82;6.93;;;12.00;82.20;;;;;;5058352;28;20214;-78
2022/03/23 06:59:18;;;;;;;7.35;6.63;;;12.00;82.10;;;;;;5056569;28;20221;-77
2022/03/23 07:01:45;;;;;;;9.07;6.85;;;12.00;81.90;;;;;;5043279;28;20716;-77
2022/03/23 07:04:12;;;;;;;7.20;6.20;;;12.00;81.90;;;;;;5043813;28;20214;-77
2022/03/23 07:06:41;;;;;;;7.43;6.68;;;11.80;81.90;;;;;;5044791;28;20539;-77
2022/03/23 07:11:53;;;;;;;6.80;6.20;;;11.80;80.90;;;;;;5048303;28;20225;-74
2022/03/23 07:14:21;;;;;;;9.32;6.75;;;11.60;81.90;;;;;;5040770;28;20246;-77
2022/03/23 07:16:48;;;;;;;7.80;6.53;;;11.70;82.90;;;;;;5040379;28;20265;-75
2022/03/23 07:19:15;;;;;;;6.93;6.28;;;11.80;84.00;;;;;;5041103;28;20305;-76
2022/03/23 07:21:42;;;;;;;8.45;6.45;;;12.00;83.90;;;;;;5044761;28;20223;-76
2022/03/23 07:24:10;;;;;;;7.22;6.63;;;12.10;82.80;;;;;;5049395;28;20214;-74
2022/03/23 07:26:37;;;;;;;7.18;6.57;;;12.10;82.30;;;;;;5045757;28;20509;-74
2022/03/23 07:29:06;;;;;;;6.50;5.90;;;12.20;81.60;;;;;;5048807;28;20268;-76
2022/03/23 07:31:34;;;;;;;7.15;6.45;;;12.50;80.90;;;;;;5038588;28;20215;-76
2022/03/23 07:34:02;;;;;;;7.07;6.38;;;12.80;81.40;;;;;;5037914;28;20210;-80
2022/03/23 07:36:29;;;;;;;7.15;6.28;;;13.00;81.00;;;;;;5037065;28;20245;-78
2022/03/23 07:38:56;;;;;;;7.07;6.38;;;13.10;80.40;;;;;;5047262;28;20576;-75
2022/03/23 07:41:23;;;;;;;6.63;6.00;;;13.30;79.60;;;;;;5040958;28;20296;-77
2022/03/23 07:43:51;;;;;;;5.97;5.40;;;13.00;77.50;;;;;;5045373;28;20206;-74
2022/03/23 07:46:20;;;;;;;6.70;5.97;;;13.00;78.90;;;;;;5040095;28;20238;-75
2022/03/23 07:48:48;;;;;;;8.77;6.38;;;13.20;78.60;;;;;;5038813;28;20192;-77
2022/03/23 07:51:15;;;;;;;10.50;6.20;;;13.10;78.50;;;;;;5035097;28;20210;-77
2022/03/23 07:53:42;;;;;;;7.45;5.63;;;13.10;79.50;;;;;;5041676;28;20549;-74
2022/03/23 07:56:09;;;;;;;8.40;6.20;;;13.30;79.90;;;;;;5043957;28;20575;-74
2022/03/23 07:58:36;;;;;;;6.30;5.70;;;13.40;78.80;;;;;;5036264;28;20320;-78
2022/03/23 08:01:03;;;;;;;10.10;5.95;;;13.40;78.20;;;;;;5044780;28;20223;-76
2022/03/23 08:03:31;;;;;;;6.90;4.90;;;13.50;77.60;;;;;;5050583;28;20199;-76
2022/03/23 08:05:59;;;;;;;6.65;5.72;;;13.50;76.30;;;;;;5043971;28;20218;-75
2022/03/23 08:08:26;;;;;;;9.45;5.18;;;13.50;76.80;;;;;;5044099;28;20202;-78
2022/03/23 08:10:53;;;;;;;5.93;5.22;;;13.60;76.10;;;;;;5039296;28;20277;-75
2022/03/23 08:13:20;;;;;;;6.20;5.60;;;13.70;76.60;;;;;;5048472;28;20554;-81
2022/03/23 08:15:47;;;;;;;7.03;5.60;;;13.80;76.80;;;;;;5041962;28;20219;-76
2022/03/23 08:18:17;;;;;;;6.43;5.35;;;13.80;76.30;;;;;;5049844;28;20653;-79
2022/03/23 08:20:45;;;;;;;6.50;5.57;;;13.80;75.80;;;;;;5045298;28;20223;-77
2022/03/23 08:23:15;;;;;;;7.57;5.25;;;14.00;75.90;;;;;;5042520;28;20222;-75
2022/03/23 08:25:43;;;;;;;5.88;5.28;;;14.20;74.50;;;;;;5049071;28;20766;-77
2022/03/23 08:28:12;;;;;;;6.28;5.68;;;14.40;73.70;;;;;;5046877;28;20195;-78
2022/03/23 08:30:40;;;;;;;8.50;6.13;;;14.50;73.90;;;;;;5046405;28;20218;-76
2022/03/23 08:33:07;;;;;;;6.50;5.80;;;14.70;74.20;;;;;;5048709;28;20812;-75
2022/03/23 08:35:35;;;;;;;6.40;5.80;;;15.10;73.90;;;;;;5046643;28;20307;-77
2022/03/23 08:38:04;;;;;;;6.88;5.70;;;15.20;73.00;;;;;;5051151;28;20214;-75
2022/03/23 08:40:31;;;;;;;6.28;5.50;;;15.10;73.50;;;;;;5048118;28;20242;-76
2022/03/23 08:42:59;;;;;;;6.60;5.95;;;15.20;73.20;;;;;;5049031;28;20260;-75
2022/03/23 08:45:27;;;;;;;6.15;5.55;;;15.30;73.60;;;;;;5047320;28;20280;-76
2022/03/23 08:47:54;;;;;;;6.97;6.28;;;15.40;73.30;;;;;;5083767;22;20225;-77
2022/03/23 08:50:21;;;;;;;9.23;6.28;;;15.80;72.40;;;;;;5078232;28;20193;-77
2022/03/23 08:52:48;;;;;;;8.57;5.95;;;15.60;72.10;;;;;;5084886;28;20198;-78
2022/03/23 08:55:19;;;;;;;6.95;5.75;;;15.30;73.70;;;;;;5082515;28;20555;-77
2022/03/23 08:57:46;;;;;;;7.25;5.53;;;15.10;73.80;;;;;;5063732;28;20225;-78
2022/03/23 09:00:14;;;;;;;7.65;5.72;;;14.90;74.00;;;;;;5060445;28;20197;-78
2022/03/23 09:02:42;;;;;;;7.22;6.00;;;15.10;73.60;;;;;;5059719;28;20233;-78
2022/03/23 09:05:11;;;;;;;7.43;5.45;;;15.30;74.20;;;;;;5062517;28;20204;-78
2022/03/23 09:07:39;;;;;;;6.30;5.70;;;15.50;72.80;;;;;;5059384;28;20840;-78
2022/03/23 09:10:07;;;;;;;6.50;5.90;;;15.60;71.20;;;;;;5057508;28;20756;-79
2022/03/23 09:12:36;;;;;;;6.43;5.82;;;15.50;71.80;;;;;;5060433;28;20492;-78
2022/03/23 09:15:04;;;;;;;6.70;5.63;;;15.60;71.10;;;;;;5062143;28;20285;-77
2022/03/23 09:17:31;;;;;;;7.05;5.80;;;15.80;71.30;;;;;;5055602;28;20585;-78
2022/03/23 09:20:00;;;;;;;8.27;5.43;;;15.60;70.50;;;;;;5061779;28;20534;-77
2022/03/23 09:22:28;;;;;;;6.25;5.65;;;15.70;71.70;;;;;;5059208;28;20233;-77
2022/03/23 09:24:55;;;;;;;6.97;5.95;;;15.50;71.10;;;;;;5059281;28;20800;-77
2022/03/23 09:27:22;;;;;;;8.50;5.97;;;15.30;70.40;;;;;;5062826;28;20222;-79
2022/03/23 09:29:50;;;;;;;7.68;6.22;;;15.40;71.90;;;;;;5053266;28;20203;-77
2022/03/23 09:32:18;;;;;;;6.40;5.53;;;15.50;72.10;;;;;;5062759;28;20754;-77
2022/03/23 09:34:46;;;;;;;6.28;5.68;;;15.70;71.30;;;;;;5056088;28;20203;-78
2022/03/23 09:39:58;;;;;;;6.30;5.68;;;16.00;70.70;;;;;;5059663;28;20287;-79
2022/03/23 09:42:28;;;;;;;6.70;6.00;;;16.10;69.90;;;;;;5064328;28;20222;-77
2022/03/23 09:44:58;;;;;;;7.75;6.25;;;16.10;68.40;;;;;;5063663;28;20203;-79
2022/03/23 09:47:25;;;;;;;6.43;5.82;;;16.20;70.20;;;;;;5061417;28;20230;-77
2022/03/23 09:49:52;;;;;;;7.10;6.20;;;16.20;69.30;;;;;;5064788;28;20250;-77
2022/03/23 09:52:19;;;;;;;6.22;5.57;;;16.20;69.10;;;;;;5060955;28;20230;-78
2022/03/23 09:54:47;;;;;;;5.47;4.95;;;16.20;69.10;;;;;;5055997;28;20205;-78
2022/03/23 09:57:14;;;;;;;6.32;5.70;;;16.20;68.90;;;;;;5062097;28;20287;-78
2022/03/23 09:59:42;;;;;;;6.22;5.63;;;16.50;69.00;;;;;;5056363;28;20588;-79
2022/03/23 10:02:41;;;;;;;7.63;6.03;;;16.70;68.50;;;;;;5063209;28;20230;-77
2022/03/23 10:05:49;;;;;;;6.50;5.90;;;17.00;67.90;;;;;;5010519;28;20199;-77
2022/03/23 10:08:51;;;;;;;6.80;5.35;;;17.30;67.30;;;;;;5059013;28;20597;-78
2022/03/23 10:11:57;;;;;;;5.93;5.30;;;17.10;67.70;;;;;;5048792;28;20226;-77
2022/03/23 10:15:00;;;;;;;6.03;5.32;;;17.10;67.20;;;;;;5030672;28;20514;-78
2022/03/23 10:17:55;;;;;;;6.38;5.78;;;17.20;67.10;;;;;;5055045;28;20229;-77
2022/03/23 10:20:24;;;;;;;7.93;5.97;;;17.40;65.10;;;;;;5064933;28;20751;-76
2022/03/23 10:22:53;;;;;;;8.77;6.13;;;17.60;67.50;;;;;;5076847;28;20222;-76
2022/03/23 10:25:26;;;;;;;9.38;5.50;;;17.60;68.20;;;;;;5059179;28;20316;-76
2022/03/23 10:27:54;;;;;;;5.63;5.05;;;17.50;67.60;;;;;;5064795;28;20218;-76
2022/03/23 10:30:33;;;;;;;6.13;5.47;;;17.50;67.70;;;;;;5064001;28;20691;-76
2022/03/23 10:33:00;;;;;;;6.47;5.50;;;17.60;66.10;;;;;;5065342;28;20225;-76
2022/03/23 10:35:37;;;;;;;6.03;5.43;;;17.70;66.50;;;;;;5063571;28;20687;-76
2022/03/23 10:38:14;;;;;;;7.10;5.63;;;17.90;66.50;;;;;;5064352;28;20245;-77
2022/03/23 10:40:41;;;;;;;6.45;5.85;;;18.00;65.60;;;;;;5067499;28;20197;-76
2022/03/23 10:43:10;;;;;;;5.75;5.22;;;18.10;65.90;;;;;;5069100;28;20714;-76
2022/03/23 10:45:37;;;;;;;7.30;5.95;;;18.10;65.60;;;;;;5062109;28;20649;-77
2022/03/23 10:48:13;;;;;;;17.98;5.90;;;18.40;65.80;;;;;;5070574;28;20237;-76
2022/03/23 10:50:52;;;;;;;7.07;6.38;;;18.70;64.30;;;;;;5071253;28;20190;-76
2022/03/23 10:53:31;;;;;;;8.07;5.30;;;18.90;66.10;;;;;;5065103;28;20317;-76
2022/03/23 10:55:59;;;;;;;6.53;5.65;;;19.00;64.50;;;;;;5064457;28;20660;-76
2022/03/23 10:58:28;;;;;;;6.20;5.60;;;18.80;63.90;;;;;;5068585;28;20194;-75
2022/03/23 11:00:56;;;;;;;5.30;4.82;;;18.50;63.90;;;;;;5062854;28;20195;-75
2022/03/23 11:03:42;;;;;;;7.05;6.00;;;18.40;64.70;;;;;;5069636;28;20218;-77
2022/03/23 11:06:13;;;;;;;5.88;5.28;;;18.40;63.30;;;;;;5065947;28;20194;-77
2022/03/23 11:08:43;;;;;;;6.30;5.65;;;18.40;63.20;;;;;;5072389;28;20190;-77
2022/03/23 11:16:46;;;;;;;6.95;5.78;;;18.70;63.30;;;;;;5067920;28;20615;-76
2022/03/23 11:19:19;;;;;;;5.82;5.32;;;18.80;63.20;;;;;;5064354;28;20201;-77
2022/03/23 11:22:05;;;;;;;6.10;5.57;;;18.80;62.50;;;;;;5065322;28;20230;-76
2022/03/23 11:24:36;;;;;;;6.35;5.75;;;18.80;62.00;;;;;;5069354;28;21032;-77
2022/03/23 11:27:06;;;;;;;9.13;6.00;;;18.60;63.00;;;;;;5065543;28;20229;-76
2022/03/23 11:29:34;;;;;;;6.78;6.00;;;18.60;65.00;;;;;;5064668;28;20213;-76
2022/03/23 11:32:04;;;;;;;6.70;6.10;;;18.90;63.40;;;;;;5066657;28;20225;-76
2022/03/23 11:34:35;;;;;;;7.40;6.07;;;19.10;62.70;;;;;;5065326;28;20617;-77
2022/03/23 11:37:06;;;;;;;6.15;5.63;;;19.40;63.60;;;;;;5061454;28;20223;-78
2022/03/23 11:39:34;;;;;;;6.63;6.03;;;19.60;64.60;;;;;;5056109;28;20244;-76
2022/03/23 11:42:03;;;;;;;6.55;5.50;;;19.60;62.60;;;;;;5067280;28;20222;-77
2022/03/23 11:44:30;;;;;;;7.13;5.78;;;19.40;62.20;;;;;;5061364;28;20194;-77
2022/03/23 11:47:03;;;;;;;5.60;5.03;;;19.20;62.70;;;;;;5066104;28;20715;-76
2022/03/23 11:49:37;;;;;;;8.68;5.70;;;19.40;63.40;;;;;;5068770;28;20199;-76
2022/03/23 11:52:21;;;;;;;8.70;5.80;;;19.80;63.80;;;;;;5071553;28;20231;-75
2022/03/23 11:58:03;;;;;;;7.05;6.18;;;19.70;62.50;;;;;;5062660;28;20228;-76
2022/03/23 12:00:39;;;;;;;5.82;5.22;;;19.60;63.10;;;;;;5063950;28;20274;-77
2022/03/23 12:03:06;;;;;;;6.88;6.18;;;19.50;63.60;;;;;;5054415;28;20226;-75
2022/03/23 12:05:37;;;;;;;7.15;5.65;;;19.40;66.30;;;;;;5067449;28;20194;-75
2022/03/23 12:08:06;;;;;;;6.35;5.75;;;19.50;66.10;;;;;;5054934;28;20593;-78
2022/03/23 12:10:43;;;;;;;6.90;6.20;;;19.80;65.60;;;;;;5056117;28;20210;-76
2022/03/23 12:13:16;;;;;;;6.05;5.45;;;19.70;63.10;;;;;;5062190;28;20222;-78
2022/03/23 12:15:59;;;;;;;6.75;5.75;;;19.60;63.60;;;;;;5054632;28;20202;-81
2022/03/23 12:18:42;;;;;;;6.47;5.47;;;19.60;62.50;;;;;;5058030;28;20241;-76
2022/03/23 12:21:11;;;;;;;5.85;5.30;;;19.70;62.40;;;;;;5055883;28;20585;-75
2022/03/23 12:23:53;;;;;;;5.97;5.40;;;19.70;64.20;;;;;;5057524;28;20218;-77
2022/03/23 12:26:28;;;;;;;6.32;5.70;;;19.50;62.90;;;;;;5055136;28;20225;-79
2022/03/23 12:29:01;;;;;;;5.85;5.00;;;19.70;62.60;;;;;;5060141;28;20229;-76
2022/03/23 12:31:37;;;;;;;7.32;5.03;;;19.80;63.20;;;;;;5059153;28;20191;-76
2022/03/23 12:34:13;;;;;;;6.30;5.10;;;19.90;61.60;;;;;;5057019;28;20198;-73
2022/03/23 12:36:59;;;;;;;5.82;5.32;;;19.80;61.00;;;;;;5063671;28;20217;-77
2022/03/23 12:39:44;;;;;;;5.57;5.07;;;19.70;62.50;;;;;;5057310;28;20195;-78
2022/03/23 12:42:23;;;;;;;5.47;4.93;;;19.70;60.00;;;;;;5063568;28;20214;-75
2022/03/23 12:45:02;;;;;;;5.32;4.82;;;19.80;61.90;;;;;;5065259;28;20198;-78
2022/03/23 12:47:31;;;;;;;5.45;4.50;;;19.60;61.00;;;;;;5068128;28;20224;-76
2022/03/23 12:58:26;;;;;;;5.68;5.18;;;19.90;60.10;;;;;;5056948;28;20256;-76
2022/03/23 13:00:56;;;;;;;6.03;5.07;;;19.90;60.10;;;;;;5067493;28;20195;-76
2022/03/23 13:04:00;;;;;;;4.57;4.18;;;20.10;60.40;;;;;;5065738;28;20231;-77
2022/03/23 13:06:39;;;;;;;6.22;4.88;;;20.30;58.60;;;;;;5069258;28;20237;-75
2022/03/23 13:09:14;;;;;;;4.78;4.32;;;20.30;57.90;;;;;;5064913;28;20191;-75
2022/03/23 13:11:56;;;;;;;4.93;4.53;;;20.10;58.10;;;;;;5057278;28;20247;-75
2022/03/23 13:14:24;;;;;;;4.05;3.65;;;20.00;58.20;;;;;;5073423;28;20561;-76
2022/03/23 13:16:57;;;;;;;3.95;3.65;;;20.10;57.60;;;;;;5065006;28;20273;-77
2022/03/23 13:19:24;;;;;;;4.40;4.00;;;20.10;56.80;;;;;;5056532;28;20684;-77
2022/03/23 13:21:51;;;;;;;4.63;3.70;;;20.20;57.00;;;;;;5078799;28;20587;-76
2022/03/23 13:24:27;;;;;;;4.05;3.30;;;20.20;57.10;;;;;;5067142;28;20686;-77
2022/03/23 13:26:56;;;;;;;4.15;3.58;;;20.30;56.40;;;;;;5073978;28;20217;-77
2022/03/23 13:29:25;;;;;;;4.18;3.40;;;20.40;56.00;;;;;;5062908;28;20195;-77
2022/03/23 13:31:52;;;;;;;3.75;3.45;;;20.50;56.80;;;;;;5068533;28;20237;-77
2022/03/23 13:34:21;;;;;;;3.92;3.40;;;20.70;56.20;;;;;;5061146;28;20209;-77
2022/03/23 13:36:51;;;;;;;3.65;3.35;;;20.70;55.90;;;;;;5070793;28;20302;-76
2022/03/23 13:39:19;;;;;;;3.60;3.30;;;20.70;55.20;;;;;;5070100;28;20218;-78